Estación Meteorológica Peña el Pijo (Robertgarden) [ 07/23/19 00:15:32 CEST ]

Fecha Hora Presion(HPa) Temp (°C) Humedad % Rocio (°C) Viento ( m/s) Direccion Lluvia 1Hora(mm) Lluvia 24H(mm) LLuvia Total(mm)
2019-Jul-22 01:01:31 1016.600 21.1 44 8.3         344.18
2019-Jul-22 02:01:52 1016.200 19.1 50 8.5         344.18
2019-Jul-22 03:01:42 1015.800 17.3 55 8.1         344.18
2019-Jul-22 04:01:43 1015.500 15.9 59 7.9         344.18
2019-Jul-22 05:03:23 1015.300 14.9 63 7.9         344.18
2019-Jul-22 06:01:42 1015.200 13.9 66 7.6         344.18
2019-Jul-22 07:01:46 1015.400 13.3 69 7.7         344.18
2019-Jul-22 08:01:57 1015.600 13.9 71 8.7         344.18
2019-Jul-22 09:01:59 1015.600 20.1 58 11.5         344.18
2019-Jul-22 10:01:42 1015.500 25.9 40 11.3         344.18
2019-Jul-22 11:01:47 1015.600 29.2 30 9.9         344.18
2019-Jul-22 12:01:40 1015.500 30.8 26 8.9         344.18
2019-Jul-22 13:01:46 1015.500 31.8 26 9.7         344.18
2019-Jul-22 14:01:47 1015.300 32.1 28 11.2         344.18
2019-Jul-22 15:01:43 1015.100 32.9 26 10.7         344.18
2019-Jul-22 16:01:44 1014.800 34.1 25 11.0         344.18
2019-Jul-22 17:01:46 1014.500 32.9 25 10.1 2.6 SW     344.18
2019-Jul-22 18:01:52 1014.200 33.2 24 9.7         344.18
2019-Jul-22 19:01:38 1014.100 31.9 25 9.2         344.18
2019-Jul-22 20:01:44 1014.500 30.1 28 9.5         344.18
2019-Jul-22 21:01:44 1014.800 27.2 32 9.0         344.18
2019-Jul-22 22:01:53 1014.800 25.1 36 8.9         344.18
2019-Jul-22 23:01:39 1015.100 23.9 38 8.7         344.18

Temperatura Máxima:34°    Temperatura Mínima:13°
Presión Máxima:1016.600 Hpa    Presión Mínima:1014.100 Hpa


Volver